Trieste, Italy

9:19 AM CEST on July 07, 2015 (GMT +0200)
chiadino/rossetti | | Change Station
CLOSE
Current Station
Personal Weather Station
Location: Trieste, Friuli-Venezia Giulia
Elevation: 135 ft
Nearby Weather Stations

Elev 135 ft 45.65 °N, 13.79 °E | Updated 9 minutes ago

Clear
Clear
86.5 °F
Feels Like 89 °F
N
1.0
Wind Variable Wind from NW
Gusts 1.0 mph

Today
High -- | Low -- °F
--% Chance of Precip.
Yesterday
High -- | Low -- °F
Precip. -- in
5:23 AM 8:56 PM
Waning Gibbous, 67% visible
Pressure 30.01 in
Visibility -9999.0 miles
Clouds
Heat Index 89 °F
Dew Point 66 °F
Humidity 51%
Rainfall 0.00 in
Snow Depth Not available.
UV Not available.
Pollen Not available.
Air Quality Not available.
Flu Activity Not available.
METAR LJPZ 070700Z VRB01KT CAVOK 28/21 Q1016

More Conditions Fewer Conditions

Pressure 30.01 in
Visibility -9999.0 miles
Clouds
Heat Index 89 °F
Dew Point 66 °F
Humidity 51%
Rainfall 0.00 in
Snow Depth Not available.
UV Not available.
Pollen Not available.
Air Quality Not available.
Flu Activity Not available.
METAR LJPZ 070700Z VRB01KT CAVOK 28/21 Q1016

More Conditions Fewer Conditions

10-Day Weather Forecast

×

Almanac

Astronomy

Jul. 07, 2015 Rise Set
Actual Time
Civil Twilight
Nautical Twilight
Astronomical Twilight
Moon
Length of Visible Light
Length of Day
Tomorrow will be .
, % of the Moon is Illuminated

Today's Extremes

Country Highs Country Lows

Community

WunderPhotos

Upload Photos

1,835,756 photos uploaded!

WunderBlogs® & News

Nearby

Air Quality

  Air Quality AQ Index Pollutant
Not available.

Snow Depth

Station Depth Elevation

Earthquake Activity

City Distance Mag. Time & Date
Minimum magnitude displayed is 2.5.

Coastal Water Temperatures

Place Temperature

Stations

Nearby Weather Stations

Station Location Temp. Windchill Dew Point Humidity Wind Precip. Elev Updated Type